createdAt,value
2018-07-07T00:00:08.139Z,3.3
2018-07-07T00:03:07.350Z,3.2
2018-07-07T00:06:07.535Z,3.3
2018-07-07T00:09:07.266Z,3.2
2018-07-07T00:12:07.447Z,3.2
2018-07-07T00:15:07.499Z,3.2
2018-07-07T00:18:07.372Z,3.3
2018-07-07T00:21:07.226Z,3.3
2018-07-07T00:24:07.192Z,3.4
2018-07-07T00:27:07.745Z,3.4
2018-07-07T00:30:07.339Z,3.2
2018-07-07T00:33:07.437Z,3.1
2018-07-07T00:36:07.321Z,3.1
2018-07-07T00:39:07.141Z,3.3
2018-07-07T00:42:07.401Z,3.2
2018-07-07T00:45:07.236Z,3.3
2018-07-07T00:48:07.459Z,3.3
2018-07-07T00:51:07.201Z,3.2
2018-07-07T00:54:07.380Z,3.1
2018-07-07T00:57:07.411Z,3.2
2018-07-07T01:00:07.202Z,3.3
2018-07-07T01:03:07.546Z,3.3
2018-07-07T01:06:07.382Z,3.4
2018-07-07T01:09:07.515Z,3.4
2018-07-07T01:12:07.478Z,3.5
2018-07-07T01:15:07.437Z,3.5
2018-07-07T01:18:07.215Z,3.4
2018-07-07T01:21:07.366Z,3.3
2018-07-07T01:24:07.529Z,3.2
2018-07-07T01:27:07.297Z,3.3
2018-07-07T01:30:07.371Z,3.3
2018-07-07T01:33:07.240Z,3.3
2018-07-07T01:36:07.356Z,3.3
2018-07-07T01:39:07.295Z,3.5
2018-07-07T01:42:07.216Z,3.5
2018-07-07T01:45:07.395Z,3.4
2018-07-07T01:48:07.220Z,3.3
2018-07-07T01:51:07.201Z,3.3
2018-07-07T01:54:07.157Z,3.4
2018-07-07T01:57:07.408Z,3.5
2018-07-07T02:00:07.221Z,3.5
2018-07-07T02:03:07.224Z,3.3
2018-07-07T02:06:07.416Z,3.4
2018-07-07T02:09:07.374Z,3.5
2018-07-07T02:12:07.322Z,3.6
2018-07-07T02:15:07.347Z,3.5
2018-07-07T02:18:07.345Z,3.5
2018-07-07T02:21:07.130Z,3.5
2018-07-07T02:24:07.291Z,3.4
2018-07-07T02:27:07.252Z,3.5
2018-07-07T02:30:07.342Z,3.6
2018-07-07T02:33:07.392Z,3.6
2018-07-07T02:36:07.364Z,3.5
2018-07-07T02:39:07.123Z,3.5
2018-07-07T02:42:07.166Z,3.6
2018-07-07T02:45:07.316Z,3.5
2018-07-07T02:48:07.456Z,3.5
2018-07-07T02:51:07.321Z,3.7
2018-07-07T02:54:07.348Z,3.7
2018-07-07T02:57:07.161Z,3.7
2018-07-07T03:00:07.222Z,3.6
2018-07-07T03:03:07.719Z,3.6
2018-07-07T03:06:07.366Z,3.7
2018-07-07T03:09:07.187Z,3.6
2018-07-07T03:12:07.307Z,3.7
2018-07-07T03:15:07.564Z,3.6
2018-07-07T03:18:07.334Z,3.6
2018-07-07T03:21:07.402Z,3.6
2018-07-07T03:24:07.330Z,3.7
2018-07-07T03:27:07.104Z,3.6
2018-07-07T03:30:07.399Z,3.6
2018-07-07T03:33:07.380Z,3.7
2018-07-07T03:36:07.196Z,3.7
2018-07-07T03:39:07.314Z,3.7
2018-07-07T03:42:07.599Z,3.6
2018-07-07T03:45:07.343Z,3.7
2018-07-07T03:48:07.443Z,3.7
2018-07-07T03:51:07.361Z,3.7
2018-07-07T03:54:07.284Z,3.7
2018-07-07T03:57:07.116Z,3.6
2018-07-07T04:00:07.294Z,3.7
2018-07-07T04:03:07.117Z,3.7
2018-07-07T04:06:07.321Z,3.6
2018-07-07T04:09:07.138Z,3.7
2018-07-07T04:12:07.284Z,3.7
2018-07-07T04:15:07.113Z,3.7
2018-07-07T04:18:07.240Z,3.8
2018-07-07T04:21:07.377Z,3.8
2018-07-07T04:24:07.170Z,3.8
2018-07-07T04:27:07.151Z,3.8
2018-07-07T04:30:07.377Z,3.8
2018-07-07T04:33:07.312Z,3.8
2018-07-07T04:36:07.111Z,3.6
2018-07-07T04:39:07.266Z,3.8
2018-07-07T04:42:07.298Z,3.7
2018-07-07T04:45:07.102Z,3.7
2018-07-07T04:48:07.319Z,3.6
2018-07-07T04:51:07.334Z,3.6
2018-07-07T04:54:07.214Z,3.7
2018-07-07T04:57:07.193Z,3.6
2018-07-07T05:00:07.289Z,3.7
2018-07-07T05:03:07.305Z,3.7
2018-07-07T05:06:07.159Z,3.7
2018-07-07T05:09:07.019Z,3.5
2018-07-07T05:12:07.341Z,3.6
2018-07-07T05:15:07.175Z,3.6
2018-07-07T05:18:07.182Z,3.6
2018-07-07T05:21:07.352Z,3.6
2018-07-07T05:24:07.206Z,3.6
2018-07-07T05:27:07.352Z,3.7
2018-07-07T05:30:07.151Z,3.6
2018-07-07T05:33:07.310Z,3.5
2018-07-07T05:36:07.285Z,3.6
2018-07-07T05:39:07.273Z,3.5
2018-07-07T05:42:07.085Z,3.5
2018-07-07T05:45:07.302Z,3.6
2018-07-07T05:48:07.414Z,3.6
2018-07-07T05:51:07.171Z,3.6
2018-07-07T05:54:07.422Z,3.6
2018-07-07T05:57:07.316Z,3.5
2018-07-07T06:00:07.239Z,3.6
2018-07-07T06:03:07.338Z,3.7
2018-07-07T06:06:07.162Z,3.7
2018-07-07T06:09:07.267Z,3.7
2018-07-07T06:12:07.193Z,3.6
2018-07-07T06:15:07.235Z,3.4
2018-07-07T06:18:07.452Z,3.4
2018-07-07T06:21:07.276Z,3.4
2018-07-07T06:24:07.158Z,3.4
2018-07-07T06:27:07.173Z,3.5
2018-07-07T06:30:07.232Z,3.6
2018-07-07T06:33:07.254Z,3.5
2018-07-07T06:36:07.207Z,3.5
2018-07-07T06:39:07.207Z,3.5
2018-07-07T06:42:07.161Z,3.6
2018-07-07T06:45:07.237Z,3.7
2018-07-07T06:48:07.066Z,3.7
2018-07-07T06:51:07.206Z,3.6
2018-07-07T06:54:07.958Z,3.5
2018-07-07T06:57:07.117Z,3.6
2018-07-07T07:00:07.236Z,3.5
2018-07-07T07:03:07.243Z,3.4
2018-07-07T07:06:07.283Z,3.4
2018-07-07T07:09:07.373Z,3.5
2018-07-07T07:12:07.153Z,3.5
2018-07-07T07:15:07.280Z,3.4
2018-07-07T07:18:07.251Z,3.4
2018-07-07T07:21:07.200Z,3.5
2018-07-07T07:24:07.102Z,3.7
2018-07-07T07:27:07.158Z,4.7
2018-07-07T07:30:07.181Z,4.2
2018-07-07T07:33:08.007Z,4
2018-07-07T07:36:07.160Z,4.3
2018-07-07T07:39:07.210Z,4.1
2018-07-07T07:42:07.289Z,4.1
2018-07-07T07:45:07.056Z,4.1
2018-07-07T07:51:52.331Z,4.1
2018-07-07T07:54:52.369Z,5.6
2018-07-07T07:57:52.578Z,4.8
2018-07-07T08:00:52.404Z,4.8
2018-07-07T08:03:52.414Z,5.8
2018-07-07T08:06:52.542Z,4.9
2018-07-07T08:09:52.280Z,4.7
2018-07-07T08:12:52.602Z,4.2
2018-07-07T08:15:52.414Z,4.5
2018-07-07T08:18:52.340Z,4
2018-07-07T08:21:52.295Z,4.5
2018-07-07T08:24:52.342Z,5
2018-07-07T08:27:52.449Z,4.6
2018-07-07T08:30:52.421Z,4.2
2018-07-07T08:33:52.396Z,4
2018-07-07T08:36:52.593Z,3.8
2018-07-07T08:39:52.423Z,3.8
2018-07-07T08:42:52.290Z,3.8
2018-07-07T08:45:52.607Z,4.3
2018-07-07T08:48:52.243Z,4
2018-07-07T08:51:52.338Z,3.8
2018-07-07T08:54:53.084Z,3.7
2018-07-07T08:57:53.003Z,3.7
2018-07-07T09:00:54.117Z,4.1
2018-07-07T09:03:53.012Z,3.8
2018-07-07T09:06:52.922Z,3.7
2018-07-07T09:09:52.932Z,3.9
2018-07-07T09:12:52.975Z,3.8
2018-07-07T09:15:53.233Z,3.8
2018-07-07T09:18:55.077Z,3.8
2018-07-07T09:21:52.980Z,3.7
2018-07-07T09:24:53.030Z,4
2018-07-07T09:27:52.878Z,4.1
2018-07-07T09:30:53.720Z,4.7
2018-07-07T09:33:53.810Z,5.4
2018-07-07T09:36:52.927Z,6.7
2018-07-07T09:39:52.880Z,7.7
2018-07-07T09:42:53.088Z,7.2
2018-07-07T09:45:53.202Z,6.8
2018-07-07T09:48:53.174Z,7
2018-07-07T09:51:52.931Z,6.6
2018-07-07T09:54:52.335Z,6.9
2018-07-07T09:57:53.357Z,7.6
2018-07-07T10:00:52.190Z,6.9
2018-07-07T10:03:52.253Z,6.7
2018-07-07T10:06:52.261Z,10.2
2018-07-07T10:09:53.191Z,9.2
2018-07-07T10:12:52.319Z,7.9
2018-07-07T10:15:53.256Z,11
2018-07-07T10:18:52.270Z,10.7
2018-07-07T10:21:53.348Z,12.1
2018-07-07T10:24:52.852Z,10.7
2018-07-07T10:27:52.319Z,11.1
2018-07-07T10:30:52.724Z,13.6
2018-07-07T10:33:53.265Z,12.4
2018-07-07T10:36:52.191Z,11.2
2018-07-07T10:39:53.300Z,10.3
2018-07-07T10:42:53.321Z,9.1
2018-07-07T10:45:56.207Z,9.6
2018-07-07T10:48:52.849Z,9.2
2018-07-07T10:51:53.031Z,8.8
2018-07-07T10:54:52.336Z,8.4
2018-07-07T10:57:52.338Z,10.4
2018-07-07T11:00:52.290Z,12.2
2018-07-07T11:03:52.272Z,10.9
2018-07-07T11:06:52.382Z,9.2
2018-07-07T11:09:52.356Z,9
2018-07-07T11:12:52.349Z,8.6
2018-07-07T11:15:52.192Z,8.2
2018-07-07T11:18:52.399Z,7
2018-07-07T11:21:52.365Z,7.4
2018-07-07T11:24:52.206Z,6.8
2018-07-07T11:27:52.196Z,7.7
2018-07-07T11:30:52.425Z,6.8
2018-07-07T11:33:52.375Z,7
2018-07-07T11:36:53.069Z,6.3
2018-07-07T11:39:52.295Z,6.3
2018-07-07T11:42:52.064Z,7.2
2018-07-07T11:45:52.287Z,7
2018-07-07T11:48:52.253Z,6.4
2018-07-07T11:51:52.361Z,6
2018-07-07T11:54:52.584Z,6
2018-07-07T11:57:52.849Z,5.5
2018-07-07T12:00:52.865Z,5.9
2018-07-07T12:03:52.895Z,5.8
2018-07-07T12:06:52.493Z,6.4
2018-07-07T12:09:52.847Z,6.3
2018-07-07T12:12:52.534Z,6.1
2018-07-07T12:15:52.582Z,6.1
2018-07-07T12:18:52.401Z,5.3
2018-07-07T12:21:52.513Z,5.4
2018-07-07T12:24:55.736Z,5.3
2018-07-07T12:27:52.660Z,6
2018-07-07T12:30:52.630Z,6
2018-07-07T12:33:52.747Z,6.5
2018-07-07T12:36:52.803Z,6.7
2018-07-07T12:39:52.651Z,7.5
2018-07-07T12:42:52.629Z,8.2
2018-07-07T12:46:33.853Z,8
2018-07-07T12:48:52.948Z,7.8
2018-07-07T12:51:53.181Z,7
2018-07-07T12:54:53.170Z,7.6
2018-07-07T12:57:52.357Z,7.5
2018-07-07T13:00:52.198Z,7.6
2018-07-07T13:03:53.060Z,7.5
2018-07-07T13:06:52.261Z,8.4
2018-07-07T13:09:52.262Z,7.6
2018-07-07T13:12:52.357Z,8
2018-07-07T13:15:52.274Z,8.6
2018-07-07T13:18:52.326Z,7.5
2018-07-07T13:21:52.299Z,6.9
2018-07-07T13:24:52.420Z,7.4
2018-07-07T13:27:52.329Z,7.2
2018-07-07T13:30:52.292Z,6.2
2018-07-07T13:33:52.255Z,7
2018-07-07T13:36:52.236Z,8.1
2018-07-07T13:39:52.310Z,7.2
2018-07-07T13:42:52.249Z,7.1
2018-07-07T13:45:52.181Z,6.3
2018-07-07T13:48:52.355Z,6.3
2018-07-07T13:51:52.381Z,6
2018-07-07T13:54:52.453Z,5.6
2018-07-07T13:57:54.040Z,5.9
2018-07-07T14:00:52.437Z,5.8
2018-07-07T14:03:52.333Z,5.5
2018-07-07T14:06:52.375Z,6.4
2018-07-07T14:09:52.432Z,5.9
2018-07-07T14:12:52.451Z,5.6
2018-07-07T14:15:52.509Z,5.5
2018-07-07T14:18:52.318Z,6
2018-07-07T14:21:54.927Z,5.5
2018-07-07T14:24:52.360Z,5.3
2018-07-07T14:27:52.312Z,5.5
2018-07-07T14:30:52.343Z,5.5
2018-07-07T14:33:52.337Z,5.8
2018-07-07T14:36:52.366Z,6
2018-07-07T14:39:52.349Z,5.5
2018-07-07T14:42:52.338Z,5.4
2018-07-07T14:45:52.467Z,5.2
2018-07-07T14:48:54.725Z,5.1
2018-07-07T14:51:54.675Z,5.7
2018-07-07T14:54:52.222Z,5.4
2018-07-07T14:57:52.725Z,5.2
2018-07-07T15:00:52.321Z,5
2018-07-07T15:03:52.260Z,5.6
2018-07-07T15:06:52.207Z,5.8
2018-07-07T15:09:52.640Z,6.1
2018-07-07T15:12:52.211Z,6.2
2018-07-07T15:15:52.313Z,5.4
2018-07-07T15:18:52.422Z,5.3
2018-07-07T15:21:52.391Z,5.3
2018-07-07T15:24:52.272Z,4.9
2018-07-07T15:27:52.162Z,5.1
2018-07-07T15:30:52.203Z,6.3
2018-07-07T15:33:52.244Z,5.4
2018-07-07T15:36:52.415Z,5.3
2018-07-07T15:39:52.182Z,5.1
2018-07-07T15:42:52.254Z,4.8
2018-07-07T15:45:52.846Z,4.7
2018-07-07T15:48:52.320Z,5.2
2018-07-07T15:51:52.170Z,5.9
2018-07-07T15:54:52.109Z,6.2
2018-07-07T15:57:52.141Z,7.3
2018-07-07T16:00:52.273Z,8.1
2018-07-07T16:03:52.211Z,8.3
2018-07-07T16:06:52.141Z,8.8
2018-07-07T16:09:52.984Z,9.3
2018-07-07T16:12:52.436Z,8
2018-07-07T16:15:52.134Z,8.3
2018-07-07T16:18:52.308Z,7.1
2018-07-07T16:21:53.832Z,6.4
2018-07-07T16:24:52.625Z,7.1
2018-07-07T16:27:52.271Z,6.8
2018-07-07T16:30:52.226Z,6.1
2018-07-07T16:33:52.151Z,5.9
2018-07-07T16:36:52.480Z,5.6
2018-07-07T16:39:52.039Z,5.1
2018-07-07T16:42:52.239Z,4.8
2018-07-07T16:45:52.227Z,5.4
2018-07-07T16:48:52.444Z,5
2018-07-07T16:51:52.329Z,5.2
2018-07-07T16:54:52.212Z,4.8
2018-07-07T16:57:52.439Z,4.5
2018-07-07T17:00:52.292Z,4.4
2018-07-07T17:03:52.501Z,5.1
2018-07-07T17:06:52.491Z,4.6
2018-07-07T17:09:52.243Z,4.7
2018-07-07T17:12:52.264Z,4.8
2018-07-07T17:15:52.180Z,4.8
2018-07-07T17:18:52.249Z,4.7
2018-07-07T17:21:52.253Z,5.1
2018-07-07T17:24:52.231Z,5.5
2018-07-07T17:27:52.193Z,6.4
2018-07-07T17:30:52.270Z,5.8
2018-07-07T17:33:52.242Z,6.7
2018-07-07T17:36:52.645Z,7.4
2018-07-07T17:39:52.154Z,7.3
2018-07-07T17:42:52.115Z,6.1
2018-07-07T17:45:52.405Z,5.6
2018-07-07T17:48:52.186Z,5
2018-07-07T17:51:52.150Z,4.6
2018-07-07T17:54:52.179Z,5.2
2018-07-07T17:57:52.160Z,4.9
2018-07-07T18:00:52.159Z,4.9
2018-07-07T18:03:52.512Z,5.4
2018-07-07T18:06:52.246Z,5.8
2018-07-07T18:09:52.281Z,5.2
2018-07-07T18:12:52.122Z,4.9
2018-07-07T18:15:52.173Z,4.5
2018-07-07T18:18:52.239Z,4.3
2018-07-07T18:21:52.327Z,4.5
2018-07-07T18:24:52.188Z,4.4
2018-07-07T18:27:52.159Z,4.4
2018-07-07T18:30:52.828Z,4.2
2018-07-07T18:33:52.238Z,4.3
2018-07-07T18:36:52.259Z,4.3
2018-07-07T18:39:52.308Z,4.3
2018-07-07T18:42:52.134Z,4.3
2018-07-07T18:45:52.117Z,4.3
2018-07-07T18:48:52.916Z,4.6
2018-07-07T18:51:52.215Z,5
2018-07-07T18:54:52.332Z,5.4
2018-07-07T18:57:52.184Z,5.6
2018-07-07T19:00:52.097Z,5.5
2018-07-07T19:03:52.159Z,5.6
2018-07-07T19:06:52.136Z,6.5
2018-07-07T19:09:52.320Z,6.1
2018-07-07T19:12:52.175Z,5.6
2018-07-07T19:15:52.860Z,5.4
2018-07-07T19:18:52.116Z,5.4
2018-07-07T19:21:52.150Z,5.1
2018-07-07T19:24:53.259Z,4.9
2018-07-07T19:27:52.996Z,5.3
2018-07-07T19:30:52.033Z,5.1
2018-07-07T19:34:02.198Z,5
2018-07-07T19:36:52.251Z,5.4
2018-07-07T19:39:52.485Z,5.2
2018-07-07T19:43:02.188Z,5.9
2018-07-07T19:45:52.331Z,5.3
2018-07-07T19:48:52.236Z,5.1
2018-07-07T19:51:51.959Z,5.3
2018-07-07T19:54:52.341Z,5.4
2018-07-07T19:57:52.129Z,5
2018-07-07T20:00:52.142Z,5.1
2018-07-07T20:03:52.256Z,6
2018-07-07T20:06:52.068Z,6
2018-07-07T20:09:52.141Z,5.3
2018-07-07T20:12:52.109Z,4.9
2018-07-07T20:15:52.256Z,4.6
2018-07-07T20:18:52.172Z,4.3
2018-07-07T20:21:52.164Z,4.3
2018-07-07T20:24:52.176Z,4.2
2018-07-07T20:27:52.237Z,4.7
2018-07-07T20:30:52.190Z,4.3
2018-07-07T20:33:52.076Z,4.2
2018-07-07T20:36:52.097Z,4.2
2018-07-07T20:39:52.143Z,4.4
2018-07-07T20:42:52.218Z,4.1
2018-07-07T20:45:53.569Z,4.2
2018-07-07T20:48:52.149Z,4.3
2018-07-07T20:51:52.124Z,4.2
2018-07-07T20:54:52.261Z,4.1
2018-07-07T20:57:52.192Z,4.7
2018-07-07T21:00:52.262Z,4.5
2018-07-07T21:03:52.347Z,4.4
2018-07-07T21:06:52.219Z,4.2
2018-07-07T21:09:52.124Z,4.3
2018-07-07T21:12:52.314Z,4.4
2018-07-07T21:15:52.328Z,4.4
2018-07-07T21:18:52.166Z,4.8
2018-07-07T21:21:52.018Z,4.5
2018-07-07T21:24:52.274Z,4.8
2018-07-07T21:27:52.165Z,4.5
2018-07-07T21:30:52.096Z,4.2
2018-07-07T21:33:52.248Z,4.2
2018-07-07T21:36:52.116Z,4.2
2018-07-07T21:39:52.265Z,4.2
2018-07-07T21:42:52.145Z,4
2018-07-07T21:45:52.240Z,4
2018-07-07T21:48:52.279Z,4
2018-07-07T21:51:52.144Z,4.1
2018-07-07T21:54:52.119Z,3.9
2018-07-07T21:57:52.059Z,3.9
2018-07-07T22:00:52.222Z,4
2018-07-07T22:03:52.205Z,3.9
2018-07-07T22:06:52.134Z,4
2018-07-07T22:09:52.091Z,4
2018-07-07T22:12:52.245Z,4
2018-07-07T22:15:52.134Z,3.9
2018-07-07T22:18:52.119Z,4.1
2018-07-07T22:21:52.197Z,4
2018-07-07T22:24:52.155Z,4
2018-07-07T22:27:52.242Z,3.9
2018-07-07T22:30:52.099Z,3.8
2018-07-07T22:33:52.304Z,3.8
2018-07-07T22:36:52.263Z,3.9
2018-07-07T22:39:52.094Z,3.8
2018-07-07T22:42:52.215Z,3.7
2018-07-07T22:45:52.089Z,3.7
2018-07-07T22:48:52.232Z,3.7
2018-07-07T22:51:52.230Z,3.7
2018-07-07T22:54:52.245Z,3.8
2018-07-07T22:57:54.500Z,3.7
2018-07-07T23:00:52.265Z,3.7
2018-07-07T23:03:52.114Z,3.7
2018-07-07T23:06:55.023Z,3.6
2018-07-07T23:09:52.250Z,3.6
2018-07-07T23:12:52.387Z,3.6
2018-07-07T23:15:52.219Z,3.6
2018-07-07T23:18:52.252Z,3.5
2018-07-07T23:21:52.130Z,3.5
2018-07-07T23:24:52.236Z,3.6
2018-07-07T23:27:52.120Z,3.6
2018-07-07T23:30:52.129Z,3.5
2018-07-07T23:33:52.261Z,3.5
2018-07-07T23:36:52.140Z,3.4
2018-07-07T23:39:52.245Z,3.4
2018-07-07T23:43:02.285Z,3.5
2018-07-07T23:45:52.285Z,3.4
2018-07-07T23:48:52.145Z,3.4
2018-07-07T23:51:52.294Z,3.3
2018-07-07T23:54:54.551Z,3.7
2018-07-07T23:57:52.283Z,3.4
